createdAt,value
2023-03-22T00:00:20.179Z,95432.13
2023-03-22T00:03:24.389Z,95426.84
2023-03-22T00:06:27.657Z,95441.88
2023-03-22T00:09:30.883Z,95435.56
2023-03-22T00:12:34.699Z,95430.06
2023-03-22T00:15:37.417Z,95432.94
2023-03-22T00:18:40.467Z,95434.53
2023-03-22T00:21:42.882Z,95425.81
2023-03-22T00:24:45.671Z,95431.88
2023-03-22T00:27:49.461Z,95430.84
2023-03-22T00:30:54.484Z,95423.97
2023-03-22T00:33:56.964Z,95418.72
2023-03-22T00:36:59.530Z,95424.78
2023-03-22T00:40:02.031Z,95417.69
2023-03-22T00:43:05.891Z,95410.81
2023-03-22T00:46:08.571Z,95410.81
2023-03-22T00:49:11.163Z,95416.88
2023-03-22T00:52:13.836Z,95419.50
2023-03-22T00:55:16.460Z,95418.72
2023-03-22T00:58:20.821Z,95413.44
2023-03-22T01:01:23.424Z,95412.66
2023-03-22T01:04:26.823Z,95408.19
2023-03-22T01:07:29.388Z,95404.75
2023-03-22T01:10:31.982Z,95408.41
2023-03-22T01:13:38.300Z,95403.94
2023-03-22T01:16:40.902Z,95402.91
2023-03-22T01:19:43.866Z,95396.59
2023-03-22T01:22:46.616Z,95387.88
2023-03-22T01:25:49.054Z,95389.72
2023-03-22T01:28:52.905Z,95387.09
2023-03-22T01:31:55.804Z,95379.19
2023-03-22T01:34:58.265Z,95373.13
2023-03-22T01:38:00.861Z,95376.56
2023-03-22T01:41:03.288Z,95382.84
2023-03-22T01:44:13.605Z,95371.28
2023-03-22T01:47:16.440Z,95368.09
2023-03-22T01:50:19.878Z,95364.66
2023-03-22T01:53:25.242Z,95369.94
2023-03-22T01:56:31.322Z,95351.72
2023-03-22T01:59:35.490Z,95357.78
2023-03-22T02:02:38.276Z,95359.38
2023-03-22T02:05:41.901Z,95363.06
2023-03-22T02:08:45.415Z,95354.34
2023-03-22T02:11:53.002Z,95353.00
2023-03-22T02:15:09.583Z,95357.47
2023-03-22T02:18:32.204Z,95362.50
2023-03-22T02:22:09.888Z,95358.25
2023-03-22T02:25:33.317Z,95351.97
2023-03-22T02:28:45.724Z,95363.28
2023-03-22T02:32:15.704Z,95350.13
2023-03-22T02:35:43.952Z,95346.44
2023-03-22T02:39:15.406Z,95344.84
2023-03-22T02:42:41.911Z,95347.25
2023-03-22T02:45:48.525Z,95348.28
2023-03-22T02:49:01.285Z,95354.34
2023-03-22T02:52:17.573Z,95344.84
2023-03-22T02:55:27.974Z,95350.13
2023-03-22T02:58:37.141Z,95336.94
2023-03-22T03:01:44.382Z,95333.75
2023-03-22T03:04:50.471Z,95337.97
2023-03-22T03:07:57.393Z,95331.34
2023-03-22T03:11:01.339Z,95331.59
2023-03-22T03:14:03.825Z,95334.50
2023-03-22T03:17:18.857Z,95334.22
2023-03-22T03:20:34.434Z,95338.97
2023-03-22T03:23:46.635Z,95344.00
2023-03-22T03:26:57.487Z,95339.25
2023-03-22T03:30:04.910Z,95345.31
2023-03-22T03:33:12.086Z,95341.09
2023-03-22T03:36:18.862Z,95342.69
2023-03-22T03:39:25.862Z,95343.25
2023-03-22T03:42:31.412Z,95343.25
2023-03-22T03:45:35.716Z,95345.31
2023-03-22T03:48:41.179Z,95344.53
2023-03-22T03:51:49.062Z,95343.50
2023-03-22T03:54:53.842Z,95351.16
2023-03-22T03:57:57.749Z,95348.28
2023-03-22T04:01:00.501Z,95348.53
2023-03-22T04:04:03.214Z,95341.41
2023-03-22T04:07:07.082Z,95342.69
2023-03-22T04:10:10.088Z,95341.09
2023-03-22T04:13:14.295Z,95333.75
2023-03-22T04:16:16.931Z,95344.06
2023-03-22T04:19:20.120Z,95335.34
2023-03-22T04:22:23.548Z,95333.75
2023-03-22T04:25:29.979Z,95341.19
2023-03-22T04:28:34.420Z,95341.19
2023-03-22T04:31:37.772Z,95332.47
2023-03-22T04:34:40.520Z,95333.28
2023-03-22T04:37:43.977Z,95339.34
2023-03-22T04:40:46.858Z,95341.75
2023-03-22T04:43:51.097Z,95334.88
2023-03-22T04:46:53.527Z,95339.34
2023-03-22T04:49:56.822Z,95339.59
2023-03-22T04:52:59.400Z,95331.13
2023-03-22T04:56:05.511Z,95326.41
2023-03-22T04:59:10.798Z,95322.72
2023-03-22T05:02:13.372Z,95326.09
2023-03-22T05:05:16.333Z,95324.56
2023-03-22T05:08:18.836Z,95315.06
2023-03-22T05:11:22.012Z,95309.47
2023-03-22T05:14:25.949Z,95314.75
2023-03-22T05:17:28.601Z,95312.63
2023-03-22T05:20:31.514Z,95308.94
2023-03-22T05:23:34.078Z,95314.75
2023-03-22T05:26:38.012Z,95317.16
2023-03-22T05:29:45.108Z,95315.03
2023-03-22T05:32:49.667Z,95308.41
2023-03-22T05:35:54.527Z,95317.91
2023-03-22T05:38:57.316Z,95326.09
2023-03-22T05:41:59.881Z,95318.97
2023-03-22T05:45:04.716Z,95326.41
2023-03-22T05:48:08.124Z,95316.09
2023-03-22T05:51:13.504Z,95321.13
2023-03-22T05:54:15.973Z,95311.41
2023-03-22T05:57:18.502Z,95319.31
2023-03-22T06:00:23.960Z,95319.06
2023-03-22T06:03:26.820Z,95312.19
2023-03-22T06:06:29.287Z,95313.78
2023-03-22T06:09:31.989Z,95314.59
2023-03-22T06:12:35.568Z,95310.13
2023-03-22T06:15:39.198Z,95309.56
2023-03-22T06:18:41.947Z,95311.16
2023-03-22T06:21:44.448Z,95307.47
2023-03-22T06:24:47.006Z,95302.22
2023-03-22T06:27:49.526Z,95304.06
2023-03-22T06:30:54.231Z,95302.22
2023-03-22T06:33:57.006Z,95300.38
2023-03-22T06:36:59.495Z,95297.75
2023-03-22T06:40:02.053Z,95295.91
2023-03-22T06:43:07.130Z,95301.97
2023-03-22T06:46:11.604Z,95298.53
2023-03-22T06:49:14.305Z,95295.91
2023-03-22T06:52:17.144Z,95304.59
2023-03-22T06:55:19.747Z,95307.25
2023-03-22T06:58:22.230Z,95307.47
2023-03-22T07:01:26.544Z,95306.44
2023-03-22T07:04:29.149Z,95295.66
2023-03-22T07:07:31.992Z,95304.59
2023-03-22T07:10:34.531Z,95298.53
2023-03-22T07:13:37.144Z,95309.09
2023-03-22T07:16:40.960Z,95308.28
2023-03-22T07:19:43.481Z,95303.00
2023-03-22T07:22:46.398Z,95307.47
2023-03-22T07:25:49.398Z,95295.34
2023-03-22T07:28:51.945Z,95305.09
2023-03-22T07:31:56.152Z,95306.94
2023-03-22T07:34:58.710Z,95318.25
2023-03-22T07:38:02.005Z,95309.56
2023-03-22T07:41:04.794Z,95311.97
2023-03-22T07:44:17.256Z,95306.13
2023-03-22T07:47:37.721Z,95302.47
2023-03-22T07:50:42.854Z,95301.91
2023-03-22T07:53:45.662Z,95302.69
2023-03-22T07:56:48.869Z,95301.66
2023-03-22T07:59:51.565Z,95308.53
2023-03-22T08:02:55.623Z,95307.97
2023-03-22T08:06:04.676Z,95296.88
2023-03-22T08:09:09.377Z,95299.25
2023-03-22T08:12:12.239Z,95299.50
2023-03-22T08:15:14.945Z,95301.66
2023-03-22T08:18:21.257Z,95300.06
2023-03-22T08:21:23.782Z,95303.97
2023-03-22T08:24:26.575Z,95308.19
2023-03-22T08:27:29.454Z,95317.47
2023-03-22T08:30:31.948Z,95311.47
2023-03-22T08:33:36.512Z,95313.84
2023-03-22T08:36:40.131Z,95315.22
2023-03-22T08:39:43.957Z,95309.16
2023-03-22T08:42:46.598Z,95301.25
2023-03-22T08:45:49.110Z,95301.00
2023-03-22T08:49:02.721Z,95307.09
2023-03-22T08:52:07.688Z,95306.53
2023-03-22T08:55:11.488Z,95304.13
2023-03-22T08:58:14.766Z,95307.78
2023-03-22T09:01:21.311Z,95301.50
2023-03-22T09:04:26.255Z,95304.38
2023-03-22T09:07:30.006Z,95307.00
2023-03-22T09:10:33.037Z,95301.72
2023-03-22T09:13:35.900Z,95293.81
2023-03-22T09:16:38.583Z,95287.75
2023-03-22T09:19:42.627Z,95292.75
2023-03-22T09:22:45.176Z,95294.59
2023-03-22T09:25:48.724Z,95281.41
2023-03-22T09:28:53.720Z,95276.94
2023-03-22T09:31:56.246Z,95276.94
2023-03-22T09:35:00.362Z,95269.88
2023-03-22T09:38:03.578Z,95276.75
2023-03-22T09:41:12.210Z,95268.03
2023-03-22T09:44:19.816Z,95262.53
2023-03-22T09:47:43.903Z,95272.25
2023-03-22T09:50:52.432Z,95264.91
2023-03-22T09:53:55.200Z,95254.94
2023-03-22T09:57:03.243Z,95260.50
2023-03-22T10:00:16.808Z,95263.44
2023-03-22T10:03:30.389Z,95259.75
2023-03-22T10:06:34.368Z,95265.59
2023-03-22T10:09:43.976Z,95257.69
2023-03-22T10:12:54.325Z,95251.13
2023-03-22T10:16:00.004Z,95255.13
2023-03-22T10:19:11.696Z,95251.97
2023-03-22T10:22:18.342Z,95246.13
2023-03-22T10:25:25.192Z,95243.22
2023-03-22T10:28:32.584Z,95242.34
2023-03-22T10:31:35.769Z,95237.03
2023-03-22T10:34:38.326Z,95235.44
2023-03-22T10:37:45.088Z,95234.16
2023-03-22T10:40:50.387Z,95222.50
2023-03-22T10:43:56.687Z,95225.38
2023-03-22T10:47:07.259Z,95225.94
2023-03-22T10:50:17.509Z,95223.31
2023-03-22T10:53:29.429Z,95220.66
2023-03-22T10:56:32.724Z,95211.97
2023-03-22T10:59:51.089Z,95206.47
2023-03-22T11:02:59.250Z,95211.72
2023-03-22T11:06:06.361Z,95214.38
2023-03-22T11:09:17.079Z,95206.47
2023-03-22T11:12:19.650Z,95204.84
2023-03-22T11:15:28.836Z,95209.09
2023-03-22T11:18:33.207Z,95204.84
2023-03-22T11:21:36.036Z,95198.00
2023-03-22T11:24:40.281Z,95198.00
2023-03-22T11:27:53.089Z,95195.34
2023-03-22T11:31:01.828Z,95184.81
2023-03-22T11:34:04.590Z,95185.88
2023-03-22T11:37:09.677Z,95177.16
2023-03-22T11:40:18.554Z,95174.53
2023-03-22T11:46:52.831Z,95163.19
2023-03-22T11:54:18.589Z,95151.84
2023-03-22T11:58:26.250Z,95150.56
2023-03-22T12:14:49.447Z,95136.59
2023-03-22T12:17:59.438Z,95134.75
2023-03-22T12:21:03.057Z,95142.66
2023-03-22T12:24:19.905Z,95136.34
2023-03-22T12:27:27.749Z,95125.00
2023-03-22T12:30:32.912Z,95120.53
2023-03-22T12:33:41.592Z,95108.16
2023-03-22T12:36:47.637Z,95108.94
2023-03-22T12:39:55.625Z,95114.22
2023-03-22T12:43:07.298Z,95114.78
2023-03-22T12:46:16.218Z,95112.13
2023-03-22T12:49:24.593Z,95104.22
2023-03-22T12:52:44.762Z,95103.44
2023-03-22T12:55:49.956Z,95106.88
2023-03-22T12:58:58.075Z,95111.34
2023-03-22T13:02:05.917Z,95108.69
2023-03-22T13:05:11.992Z,95103.44
2023-03-22T13:08:19.626Z,95102.63
2023-03-22T13:11:25.599Z,95100.78
2023-03-22T13:14:58.743Z,95107.91
2023-03-22T13:18:01.868Z,95102.88
2023-03-22T13:21:13.534Z,95090.75
2023-03-22T13:24:26.364Z,95095.22
2023-03-22T13:27:37.891Z,95091.53
2023-03-22T13:30:52.576Z,95084.44
2023-03-22T13:33:55.409Z,95080.22
2023-03-22T13:36:58.805Z,95074.16
2023-03-22T13:40:04.490Z,95080.75
2023-03-22T13:43:29.665Z,95066.78
2023-03-22T13:46:50.378Z,95065.75
2023-03-22T13:49:59.284Z,95056.25
2023-03-22T13:53:06.060Z,95050.97
2023-03-22T13:56:12.314Z,95046.75
2023-03-22T13:59:20.856Z,95043.88
2023-03-22T14:02:30.297Z,95041.22
2023-03-22T14:05:37.548Z,95043.88
2023-03-22T14:08:42.896Z,95034.38
2023-03-22T14:11:48.790Z,95042.03
2023-03-22T14:14:56.517Z,95043.63
2023-03-22T14:18:04.062Z,95039.38
2023-03-22T14:21:10.487Z,95028.84
